createdAt,value
2022-10-31T00:03:51.668Z,31.75
2022-10-31T00:09:00.087Z,30.63
2022-10-31T00:14:07.994Z,31.00
2022-10-31T00:19:13.976Z,30.45
2022-10-31T00:24:19.975Z,37.28
2022-10-31T00:29:28.400Z,33.42
2022-10-31T00:34:34.310Z,43.67
2022-10-31T00:39:40.660Z,40.03
2022-10-31T00:44:48.088Z,42.28
2022-10-31T00:49:54.070Z,40.53
2022-10-31T00:55:00.106Z,38.10
2022-10-31T01:00:09.792Z,37.92
2022-10-31T01:05:16.178Z,37.10
2022-10-31T01:10:24.310Z,40.70
2022-10-31T01:15:32.796Z,37.25
2022-10-31T01:20:38.822Z,35.15
2022-10-31T01:25:44.826Z,35.67
2022-10-31T01:30:55.066Z,31.38
2022-10-31T01:36:02.956Z,34.78
2022-10-31T01:41:09.120Z,36.53
2022-10-31T01:46:19.608Z,40.38
2022-10-31T01:51:32.180Z,39.40
2022-10-31T01:56:44.065Z,38.75
2022-10-31T02:01:56.362Z,32.67
2022-10-31T02:07:07.542Z,33.70
2022-10-31T02:12:14.589Z,33.40
2022-10-31T02:17:23.080Z,31.80
2022-10-31T02:22:40.868Z,30.90
2022-10-31T02:28:14.394Z,28.23
2022-10-31T02:33:32.410Z,28.40
2022-10-31T02:38:53.186Z,24.95
2022-10-31T02:44:18.349Z,27.92
2022-10-31T02:49:32.313Z,22.50
2022-10-31T02:54:39.255Z,26.45
2022-10-31T02:59:53.417Z,28.05
2022-10-31T03:05:25.401Z,29.23
2022-10-31T03:10:43.877Z,27.85
2022-10-31T03:15:54.272Z,26.02
2022-10-31T03:21:09.048Z,26.10
2022-10-31T03:26:16.532Z,24.42
2022-10-31T03:31:27.392Z,23.02
2022-10-31T03:36:39.146Z,21.35
2022-10-31T03:41:52.422Z,19.73
2022-10-31T03:46:59.155Z,18.38
2022-10-31T03:52:19.733Z,18.65
2022-10-31T03:57:32.029Z,15.80
2022-10-31T04:02:43.937Z,16.08
2022-10-31T04:07:59.268Z,15.13
2022-10-31T04:13:11.304Z,16.23
2022-10-31T04:18:27.014Z,17.10
2022-10-31T04:23:35.941Z,17.40
2022-10-31T04:28:49.423Z,16.40
2022-10-31T04:33:55.647Z,16.85
2022-10-31T04:39:04.251Z,15.50
2022-10-31T04:44:18.313Z,15.52
2022-10-31T04:49:28.638Z,15.98
2022-10-31T04:54:37.095Z,16.15
2022-10-31T05:00:24.129Z,16.08
2022-10-31T05:05:33.364Z,15.68
2022-10-31T05:10:44.167Z,14.52
2022-10-31T05:15:50.341Z,13.18
2022-10-31T05:21:14.980Z,13.20
2022-10-31T05:26:26.021Z,12.88
2022-10-31T05:31:33.552Z,12.13
2022-10-31T05:36:40.829Z,12.10
2022-10-31T05:41:58.630Z,13.15
2022-10-31T05:47:06.483Z,12.02
2022-10-31T05:52:57.666Z,13.45
2022-10-31T05:58:11.270Z,11.50
2022-10-31T06:03:19.311Z,11.30
2022-10-31T06:08:32.132Z,13.75
2022-10-31T06:13:43.957Z,12.55
2022-10-31T06:18:57.444Z,11.98
2022-10-31T06:24:03.446Z,12.18
2022-10-31T06:29:33.326Z,11.40
2022-10-31T06:34:44.401Z,12.82
2022-10-31T06:39:50.696Z,11.68
2022-10-31T06:44:58.671Z,13.77
2022-10-31T06:50:24.453Z,12.05
2022-10-31T06:55:32.665Z,12.57
2022-10-31T07:00:40.478Z,13.02
2022-10-31T07:05:47.060Z,13.68
2022-10-31T07:10:57.318Z,12.68
2022-10-31T07:16:07.898Z,12.48
2022-10-31T07:21:15.672Z,11.20
2022-10-31T07:26:22.052Z,11.10
2022-10-31T07:31:29.930Z,12.80
2022-10-31T07:36:42.456Z,11.73
2022-10-31T07:41:50.069Z,13.90
2022-10-31T07:47:00.710Z,14.93
2022-10-31T07:52:26.747Z,13.45
2022-10-31T07:58:00.529Z,14.10
2022-10-31T08:03:11.403Z,13.25
2022-10-31T08:08:46.637Z,11.60
2022-10-31T08:13:53.117Z,12.25
2022-10-31T08:19:00.775Z,12.02
2022-10-31T08:24:09.441Z,10.90
2022-10-31T08:29:16.080Z,12.15
2022-10-31T08:34:28.148Z,11.77
2022-10-31T08:39:52.769Z,12.82
2022-10-31T08:45:00.717Z,11.05
2022-10-31T08:50:12.103Z,9.13
2022-10-31T08:55:18.807Z,9.73
2022-10-31T09:00:48.403Z,8.90
2022-10-31T09:06:01.628Z,8.95
2022-10-31T09:11:08.929Z,9.35
2022-10-31T09:16:33.445Z,8.27
2022-10-31T09:21:41.122Z,9.10
2022-10-31T09:26:49.037Z,8.00
2022-10-31T09:31:59.813Z,8.63
2022-10-31T09:37:10.840Z,7.13
2022-10-31T09:42:57.435Z,7.20
2022-10-31T09:48:26.736Z,7.70
2022-10-31T09:53:44.131Z,6.85
2022-10-31T09:58:57.261Z,5.60
2022-10-31T10:04:19.825Z,6.10
2022-10-31T10:09:40.373Z,6.10
2022-10-31T10:15:56.910Z,6.15
2022-10-31T10:21:21.600Z,7.75
2022-10-31T10:26:38.778Z,6.18
2022-10-31T10:31:48.383Z,6.15
2022-10-31T10:37:01.492Z,6.45
2022-10-31T10:42:32.809Z,6.40
2022-10-31T10:47:45.194Z,5.70
2022-10-31T10:53:00.647Z,5.38
2022-10-31T10:58:11.132Z,7.13
2022-10-31T11:03:19.639Z,7.28
2022-10-31T11:08:31.081Z,8.02
2022-10-31T11:13:39.534Z,7.88
2022-10-31T11:18:48.941Z,9.90
2022-10-31T11:24:06.721Z,10.65
2022-10-31T11:29:22.377Z,10.48
2022-10-31T11:34:34.638Z,12.07
2022-10-31T11:39:46.066Z,11.00
2022-10-31T11:44:56.073Z,11.35
2022-10-31T11:50:12.218Z,10.93
2022-10-31T11:55:32.550Z,12.23
2022-10-31T12:00:50.744Z,12.27
2022-10-31T12:06:02.664Z,11.43
2022-10-31T12:11:29.150Z,12.55
2022-10-31T12:16:43.136Z,12.48
2022-10-31T12:22:16.486Z,13.52
2022-10-31T12:27:39.439Z,14.57
2022-10-31T12:33:14.464Z,14.15
2022-10-31T12:38:52.974Z,14.38
2022-10-31T12:44:08.133Z,13.57
2022-10-31T12:49:48.024Z,13.95
2022-10-31T12:55:14.696Z,15.93
2022-10-31T13:00:26.534Z,15.85
2022-10-31T13:05:41.646Z,15.38
2022-10-31T13:10:53.746Z,17.25
2022-10-31T13:16:04.017Z,16.48
2022-10-31T13:21:20.504Z,17.92
2022-10-31T13:26:43.358Z,17.60
2022-10-31T13:31:49.665Z,17.75
2022-10-31T13:37:08.085Z,18.70
2022-10-31T13:42:21.641Z,16.30
2022-10-31T13:47:30.293Z,21.40
2022-10-31T13:52:38.530Z,19.05
2022-10-31T13:57:46.926Z,22.13
2022-10-31T14:02:57.155Z,21.38
2022-10-31T14:08:08.658Z,22.88
2022-10-31T14:13:23.401Z,23.63
2022-10-31T14:18:36.105Z,22.60
2022-10-31T14:23:47.431Z,20.40
2022-10-31T14:28:58.721Z,20.48
2022-10-31T14:34:24.815Z,22.00
2022-10-31T14:39:40.254Z,22.85
2022-10-31T14:45:20.971Z,22.33
2022-10-31T14:50:43.814Z,21.73
2022-10-31T14:55:55.409Z,22.95
2022-10-31T15:01:01.875Z,22.17
2022-10-31T15:06:15.549Z,23.10
2022-10-31T15:11:25.908Z,22.90
2022-10-31T15:16:36.950Z,22.95
2022-10-31T15:21:47.742Z,23.13
2022-10-31T15:27:02.323Z,20.60
2022-10-31T15:32:24.216Z,21.02
2022-10-31T15:37:30.783Z,21.73
2022-10-31T15:42:43.242Z,22.98
2022-10-31T15:47:58.276Z,20.95
2022-10-31T15:53:06.006Z,21.83
2022-10-31T15:58:17.970Z,23.85
2022-10-31T16:03:29.524Z,23.38
2022-10-31T16:08:38.898Z,21.42
2022-10-31T16:14:00.104Z,23.45
2022-10-31T16:19:15.315Z,21.45
2022-10-31T16:24:26.247Z,23.85
2022-10-31T16:29:40.577Z,22.15
2022-10-31T16:34:47.440Z,24.27
2022-10-31T16:40:03.340Z,23.67
2022-10-31T16:45:19.759Z,24.92
2022-10-31T16:50:29.813Z,23.67
2022-10-31T16:55:49.051Z,22.02
2022-10-31T17:01:02.382Z,21.75
2022-10-31T17:06:15.115Z,21.27
2022-10-31T17:11:25.337Z,20.38
2022-10-31T17:16:33.070Z,20.55
2022-10-31T17:21:39.607Z,21.77
2022-10-31T17:26:48.698Z,22.90
2022-10-31T18:02:11.021Z,16.38
2022-10-31T18:08:59.772Z,15.05
2022-10-31T18:21:00.120Z,17.10
2022-10-31T18:33:42.741Z,15.05
2022-10-31T18:39:15.916Z,15.27
2022-10-31T18:54:18.110Z,13.88
2022-10-31T18:59:26.421Z,12.02
2022-10-31T19:05:22.092Z,13.02
2022-10-31T19:26:44.957Z,11.38
2022-10-31T19:41:03.437Z,12.25
2022-10-31T19:54:29.521Z,12.95
2022-10-31T20:00:52.003Z,11.90
2022-10-31T20:14:04.608Z,10.10
2022-10-31T20:19:35.763Z,13.63
2022-10-31T20:24:43.444Z,12.18
2022-10-31T20:31:29.513Z,10.20
2022-10-31T20:44:14.035Z,9.45
2022-10-31T20:50:37.297Z,9.40
2022-10-31T20:56:32.971Z,10.52
2022-10-31T21:10:15.285Z,10.63
2022-10-31T21:24:13.735Z,11.38
2022-10-31T21:29:46.071Z,9.68
2022-10-31T21:36:31.991Z,10.45
2022-10-31T21:50:44.458Z,10.15
2022-10-31T21:55:50.827Z,12.90
2022-10-31T22:01:02.159Z,14.77
2022-10-31T22:06:12.120Z,11.85
2022-10-31T22:19:07.165Z,12.77
2022-10-31T22:24:19.796Z,12.23
2022-10-31T22:29:31.136Z,11.27
2022-10-31T22:34:41.560Z,12.00
2022-10-31T22:39:49.022Z,10.02
2022-10-31T22:44:55.172Z,10.00
2022-10-31T22:50:03.674Z,10.10
2022-10-31T22:55:12.118Z,10.13
2022-10-31T23:00:19.549Z,10.35
2022-10-31T23:05:25.865Z,10.98
2022-10-31T23:10:36.136Z,9.65
2022-10-31T23:15:43.474Z,11.48
2022-10-31T23:21:01.668Z,12.15
2022-10-31T23:26:27.680Z,11.07
2022-10-31T23:31:33.713Z,11.63
2022-10-31T23:36:40.158Z,9.40
2022-10-31T23:41:47.619Z,10.95
2022-10-31T23:46:53.599Z,9.95
2022-10-31T23:52:01.572Z,12.20
2022-10-31T23:57:09.573Z,10.80
